Flight Track Log - Related Links

Times and Time Zones

All times are in EDT time to prevent confusion due to time zone crossing. See the N4608W flight status page for this flight to view local times or setup timezone preferences in your user account.

Time Position Orientation Groundspeed Altitude Reporting Facility
EDT Latitude Longitude Course Direction KTS MPH feet Rate Location/Type
Fri 04:52:48 PM 39.0667 -84.4167 33° Northeast 92 106 1,300  Level Cincinnati TRACON
Fri 04:53:48 PM 39.0833 -84.4000 38° Northeast 92 106 2,000 450 Climbing Cincinnati TRACON
Fri 04:54:48 PM 39.1167 -84.3833 21° North 116 133 2,200 545 Climbing Cincinnati TRACON
Fri 04:55:49 PM 39.1333 -84.3500 57° Northeast 94 108 3,100 716 Climbing Cincinnati TRACON
Fri 04:56:37 PM 39.1486 -84.3386 30° Northeast 112 129 3,500 709 Climbing Indianapolis Center
Fri 04:57:39 PM 39.1736 -84.3208 29° Northeast 89 102 4,400 774 Climbing Indianapolis Center
Fri 04:58:00 PM 39.2634 -84.2690 33° Northeast  Level Estimated
Fri 04:58:41 PM 39.1953 -84.3078 25° Northeast 86 99 5,100  Level Indianapolis Center
Fri 04:59:43 PM 39.2144 -84.2928 31° Northeast 84 97 5,800 629 Climbing Indianapolis Center
Fri 05:00:45 PM 39.2306 -84.2728 44° Northeast 82 94 6,400 581 Climbing Indianapolis Center
Fri 05:01:47 PM 39.2503 -84.2572 31° Northeast 82 94 7,000 581 Climbing Indianapolis Center
Fri 05:02:49 PM 39.2697 -84.2411 33° Northeast 83 96 7,600 667 Climbing Indianapolis Center
Fri 05:03:26 PM 39.2864 -84.2308 26° Northeast 87 100 8,100 677 Climbing Indianapolis Center
Fri 05:03:51 PM 39.2947 -84.2228 37° Northeast 86 99 8,300 552 Climbing Indianapolis Center
Fri 05:04:53 PM 39.3164 -84.2103 24° Northeast 85 98 8,900 575 Climbing Indianapolis Center
Fri 05:05:04 PM 39.3186 -84.2067 51° Northeast 85 98 9,000 500 Climbing Indianapolis Center
Fri 05:05:53 PM 39.3308 -84.1897 47° Northeast 85 98 9,400 462 Climbing Indianapolis Center
Fri 05:05:56 PM 39.3322 -84.1875 51° Northeast 86 99 9,400 197 Level Indianapolis Center
Fri 05:06:54 PM 39.3547 -84.1642 39° Northeast 104 120 9,600 194 Climbing Indianapolis Center
Fri 05:06:58 PM 39.3525 -84.1656 206° Southwest 93 107 9,600  Level Indianapolis Center
Fri 05:08:00 PM 39.3797 -84.1400 36° Northeast 116 133 9,600  Level Indianapolis Center
Fri 05:08:56 PM 39.4111 -84.1092 37° Northeast 132 152 9,600  Level Indianapolis Center
Fri 05:09:02 PM 39.4139 -84.1053 47° Northeast 129 148 9,600 -98 Level Indianapolis Center
Fri 05:09:57 PM 39.4411 -84.0819 34° Northeast 136 157 9,500 -97 Descending Indianapolis Center
Fri 05:10:04 PM 39.4444 -84.0764 52° Northeast 135 155 9,500  Level Indianapolis Center
Fri 05:10:52 PM 39.4694 -84.0542 34° Northeast 136 157 9,500  Level Indianapolis Center
Fri 05:11:06 PM 39.4758 -84.0497 28° Northeast 137 158 9,500  Level Indianapolis Center
Fri 05:11:58 PM 39.5019 -84.0247 36° Northeast 129 148 9,500  Level Indianapolis Center
Fri 05:12:08 PM 39.5044 -84.0222 38° Northeast 130 150 9,500  Level Indianapolis Center
Fri 05:13:05 PM 39.5331 -83.9892 42° Northeast 130 150 9,500  Level Indianapolis Center
Fri 05:13:10 PM 39.5322 -83.9925 252° West 129 148 9,500  Level Indianapolis Center
Fri 05:14:06 PM 39.5650 -83.9650 33° Northeast 132 152 9,500  Level Indianapolis Center
Fri 05:14:12 PM 39.5619 -83.9658 192° South 130 150 9,500  Level Indianapolis Center
Fri 05:15:07 PM 39.5956 -83.9350 35° Northeast 132 152 9,500  Level Indianapolis Center
Fri 05:15:14 PM 39.5978 -83.9311 53° Northeast 133 153 9,500  Level Indianapolis Center
Fri 05:16:08 PM 39.6236 -83.9072 35° Northeast 133 153 9,500  Level Indianapolis Center
Fri 05:16:16 PM 39.6281 -83.9031 36° Northeast 133 153 9,500  Level Indianapolis Center
Fri 05:17:03 PM 39.6536 -83.8825 32° Northeast 130 150 9,500  Level Indianapolis Center
Fri 05:17:18 PM 39.6586 -83.8769 41° Northeast 131 151 9,500  Level Indianapolis Center
Fri 05:18:20 PM 39.6869 -83.8500 36° Northeast 128 147 9,500  Level Indianapolis Center
Fri 05:19:11 PM 39.7144 -83.8222 38° Northeast 132 152 9,500  Level Indianapolis Center
Fri 05:19:22 PM 39.7164 -83.8211 24° Northeast 131 151 9,500  Level Indianapolis Center
Fri 05:20:06 PM 39.7419 -83.7997 33° Northeast 129 148 9,500  Level Indianapolis Center
Fri 05:20:25 PM 39.7461 -83.7953 39° Northeast 129 148 9,500  Level Indianapolis Center
Fri 05:21:07 PM 39.7700 -83.7719 37° Northeast 128 147 9,500  Level Indianapolis Center
Fri 05:21:27 PM 39.7803 -83.7619 37° Northeast 127 146 9,500  Level Indianapolis Center
Fri 05:22:14 PM 39.8025 -83.7419 35° Northeast 129 148 9,500  Level Indianapolis Center
Fri 05:22:29 PM 39.8092 -83.7336 44° Northeast 129 148 9,500  Level Indianapolis Center
Fri 05:23:15 PM 39.8344 -83.7175 26° Northeast 134 154 9,500  Level Indianapolis Center
Fri 05:23:31 PM 39.8422 -83.7139 20° North 131 151 9,500 -200 Level Indianapolis Center
Fri 05:24:15 PM 39.8661 -83.6956 30° Northeast 127 146 9,300 -290 Descending Indianapolis Center
Fri 05:24:33 PM 39.8728 -83.6883 40° Northeast 129 148 9,200 -618 Descending Indianapolis Center
Fri 05:25:23 PM 39.9008 -83.6661 31° Northeast 144 166 8,600 -677 Descending Indianapolis Center
Fri 05:25:35 PM 39.9064 -83.6619 30° Northeast 135 155 8,500 -750 Descending Indianapolis Center
Fri 05:26:11 PM 39.9322 -83.6467 24° Northeast 146 168 8,000 -774 Descending Indianapolis Center
Fri 05:26:37 PM 39.9428 -83.6375 34° Northeast 143 165 7,700 -873 Descending Indianapolis Center
Fri 05:27:06 PM 39.9644 -83.6194 33° Northeast 146 168 7,200 -871 Descending Indianapolis Center
Fri 05:27:39 PM 39.9783 -83.6094 29° Northeast 146 168 6,800 -885 Descending Indianapolis Center
Fri 05:28:07 PM 40.0003 -83.5956 26° Northeast 150 173 6,300 -871 Descending Indianapolis Center
Fri 05:28:41 PM 40.0156 -83.5833 31° Northeast 148 170 5,900 -896 Descending Indianapolis Center
Fri 05:29:14 PM 40.0392 -83.5639 32° Northeast 148 170 5,300 -1,065 Descending Indianapolis Center
Fri 05:29:43 PM 40.0581 -83.5494 30° Northeast 150 173 4,800 -462 Descending Indianapolis Center
Fri 05:30:45 PM 40.0958 -83.5258 26° Northeast 150 173 4,600 -194 Descending Indianapolis Center
Fri 05:32:00 PM 40.1245 -83.4872 37° Northeast  Level Estimated
Fri 05:39:00 PM 40.2167 -83.3500 37° Northeast  Level FlightAware Approximate
Fri 05:40:00 PM 40.2247 -83.3516 37° Northeast  Level Estimated
Fri 05:41:00 PM 40.2247 -83.3516 37° Northeast  Level Estimated
Fri 05:42:00 PM 40.2247 -83.3516 37° Northeast  Level Estimated
Fri 05:43:00 PM 40.2247 -83.3516 37° Northeast  Level Estimated
Fri 05:44:00 PM 40.2247 -83.3516 37° Northeast  Level Estimated
Fri 05:45:00 PM 40.2247 -83.3516 37° Northeast  Level Estimated
Fri 05:46:00 PM 40.2247 -83.3516 37° Northeast  Level Estimated
Fri 05:47:00 PM 40.2247 -83.3516 37° Northeast  Level Estimated

Login

Don't have an account? Register now (free) for customized features, flight alerts, and more!